createdAt,value
2022-12-23T00:01:04.765Z,5.60
2022-12-23T00:03:33.250Z,5.62
2022-12-23T00:06:00.735Z,5.65
2022-12-23T00:08:27.875Z,5.66
2022-12-23T00:10:56.771Z,5.68
2022-12-23T00:13:23.749Z,5.71
2022-12-23T00:15:50.411Z,5.71
2022-12-23T00:18:17.131Z,5.72
2022-12-23T00:20:45.105Z,5.73
2022-12-23T00:23:11.681Z,5.74
2022-12-23T00:25:42.402Z,5.73
2022-12-23T00:28:10.461Z,5.76
2022-12-23T00:30:37.719Z,5.77
2022-12-23T00:33:04.846Z,5.79
2022-12-23T00:35:31.897Z,5.83
2022-12-23T00:37:59.937Z,5.84
2022-12-23T00:40:26.672Z,5.85
2022-12-23T00:42:53.230Z,5.86
2022-12-23T00:45:20.115Z,5.87
2022-12-23T00:47:48.038Z,5.88
2022-12-23T00:50:14.807Z,5.90
2022-12-23T00:52:41.459Z,5.93
2022-12-23T00:55:09.749Z,5.95
2022-12-23T00:57:36.391Z,5.96
2022-12-23T01:00:03.437Z,5.97
2022-12-23T01:02:30.186Z,5.98
2022-12-23T01:04:56.931Z,6.00
2022-12-23T01:07:24.445Z,6.01
2022-12-23T01:09:51.094Z,6.03
2022-12-23T01:12:19.117Z,6.03
2022-12-23T01:14:45.834Z,6.04
2022-12-23T01:17:12.581Z,6.06
2022-12-23T01:19:39.706Z,6.05
2022-12-23T01:22:06.362Z,6.06
2022-12-23T01:24:33.621Z,6.06
2022-12-23T01:27:00.605Z,6.07
2022-12-23T01:29:28.618Z,6.09
2022-12-23T01:31:55.469Z,6.09
2022-12-23T01:34:22.379Z,6.12
2022-12-23T01:36:49.136Z,6.11
2022-12-23T01:39:15.920Z,6.12
2022-12-23T01:41:42.627Z,6.14
2022-12-23T01:44:46.872Z,6.14
2022-12-23T01:47:19.901Z,6.15
2022-12-23T01:49:47.628Z,6.16
2022-12-23T01:52:15.014Z,6.17
2022-12-23T01:54:42.675Z,6.18
2022-12-23T01:57:09.296Z,6.17
2022-12-23T01:59:36.249Z,6.16
2022-12-23T02:02:02.946Z,6.17
2022-12-23T02:04:31.015Z,6.17
2022-12-23T02:06:57.691Z,6.18
2022-12-23T02:09:26.349Z,6.20
2022-12-23T02:12:22.546Z,6.20
2022-12-23T02:15:01.762Z,6.21
2022-12-23T02:17:33.610Z,6.24
2022-12-23T02:20:29.107Z,6.24
2022-12-23T02:23:25.898Z,6.25
2022-12-23T02:26:14.252Z,6.26
2022-12-23T02:29:05.105Z,6.27
2022-12-23T02:31:41.867Z,6.29
2022-12-23T02:34:16.457Z,6.30
2022-12-23T02:36:50.380Z,6.32
2022-12-23T02:39:27.043Z,6.32
2022-12-23T02:41:58.781Z,6.31
2022-12-23T02:44:32.567Z,6.31
2022-12-23T02:47:04.531Z,6.33
2022-12-23T02:49:34.953Z,6.34
2022-12-23T02:52:05.114Z,6.36
2022-12-23T02:54:36.859Z,6.38
2022-12-23T02:57:06.101Z,6.40
2022-12-23T02:59:36.577Z,6.41
2022-12-23T03:02:04.681Z,6.42
2022-12-23T03:04:31.493Z,6.43
2022-12-23T03:07:01.689Z,6.44
2022-12-23T03:09:43.506Z,6.45
2022-12-23T03:12:19.509Z,6.46
2022-12-23T03:14:55.485Z,6.45
2022-12-23T03:17:35.708Z,6.48
2022-12-23T03:20:14.003Z,6.47
2022-12-23T03:22:50.839Z,6.48
2022-12-23T03:25:23.355Z,6.50
2022-12-23T03:27:55.421Z,6.51
2022-12-23T03:30:23.123Z,6.52
2022-12-23T03:32:55.311Z,6.51
2022-12-23T03:35:28.377Z,6.53
2022-12-23T03:37:57.715Z,6.55
2022-12-23T03:40:28.018Z,6.56
2022-12-23T03:43:00.847Z,6.58
2022-12-23T03:45:41.711Z,6.60
2022-12-23T03:48:19.343Z,6.62
2022-12-23T03:50:49.137Z,6.63
2022-12-23T03:53:22.348Z,6.64
2022-12-23T03:55:53.923Z,6.64
2022-12-23T03:58:33.928Z,6.64
2022-12-23T04:01:08.052Z,6.65
2022-12-23T04:03:41.923Z,6.65
2022-12-23T04:06:14.269Z,6.64
2022-12-23T04:08:43.495Z,6.65
2022-12-23T04:11:11.104Z,6.67
2022-12-23T04:13:37.968Z,6.67
2022-12-23T04:16:05.840Z,6.67
2022-12-23T04:18:32.638Z,6.65
2022-12-23T04:21:00.611Z,6.67
2022-12-23T04:23:27.444Z,6.70
2022-12-23T04:25:54.047Z,6.71
2022-12-23T04:28:20.770Z,6.72
2022-12-23T04:30:47.419Z,6.71
2022-12-23T04:33:14.038Z,6.73
2022-12-23T04:35:40.589Z,6.75
2022-12-23T04:38:08.942Z,6.75
2022-12-23T04:40:35.581Z,6.74
2022-12-23T04:43:02.178Z,6.73
2022-12-23T04:45:28.824Z,6.73
2022-12-23T04:47:55.496Z,6.75
2022-12-23T04:50:22.155Z,6.77
2022-12-23T04:52:48.787Z,6.78
2022-12-23T04:55:16.958Z,6.79
2022-12-23T04:57:43.624Z,6.81
2022-12-23T05:00:11.319Z,6.82
2022-12-23T05:02:38.087Z,6.84
2022-12-23T05:05:05.555Z,6.87
2022-12-23T05:07:32.191Z,6.90
2022-12-23T05:09:58.796Z,6.90
2022-12-23T05:12:26.986Z,6.93
2022-12-23T05:14:53.561Z,6.92
2022-12-23T05:17:20.183Z,6.91
2022-12-23T05:19:46.851Z,6.91
2022-12-23T05:22:13.483Z,6.92
2022-12-23T05:24:40.089Z,6.93
2022-12-23T05:27:06.720Z,6.94
2022-12-23T05:29:34.711Z,6.94
2022-12-23T05:32:01.336Z,6.95
2022-12-23T05:34:28.173Z,6.94
2022-12-23T05:36:54.719Z,6.92
2022-12-23T05:39:21.343Z,6.92
2022-12-23T05:41:47.950Z,6.92
2022-12-23T05:44:14.664Z,6.94
2022-12-23T05:46:42.726Z,6.93
2022-12-23T05:49:09.618Z,6.95
2022-12-23T05:51:36.219Z,6.95
2022-12-23T05:54:02.905Z,6.97
2022-12-23T05:56:29.671Z,6.98
2022-12-23T05:58:56.300Z,6.97
2022-12-23T06:01:22.863Z,6.99
2022-12-23T06:03:50.894Z,6.99
2022-12-23T06:06:17.568Z,6.98
2022-12-23T06:08:44.121Z,6.99
2022-12-23T06:11:10.782Z,7.01
2022-12-23T06:13:37.391Z,7.02
2022-12-23T06:16:04.590Z,7.03
2022-12-23T06:18:31.207Z,7.03
2022-12-23T06:20:59.216Z,7.05
2022-12-23T06:23:26.077Z,7.05
2022-12-23T06:25:58.666Z,7.07
2022-12-23T06:28:25.276Z,7.07
2022-12-23T06:30:52.918Z,7.08
2022-12-23T06:33:19.544Z,7.08
2022-12-23T06:35:46.148Z,7.09
2022-12-23T06:38:14.362Z,7.07
2022-12-23T06:40:40.982Z,7.07
2022-12-23T06:43:07.647Z,7.08
2022-12-23T06:45:34.528Z,7.08
2022-12-23T06:48:01.166Z,7.09
2022-12-23T06:50:27.747Z,7.09
2022-12-23T06:52:54.407Z,7.10
2022-12-23T06:55:22.392Z,7.09
2022-12-23T06:57:49.111Z,7.09
2022-12-23T07:00:16.760Z,7.09
2022-12-23T07:02:43.406Z,7.10
2022-12-23T07:05:10.074Z,7.10
2022-12-23T07:07:36.775Z,7.11
2022-12-23T07:10:04.155Z,7.10
2022-12-23T07:12:32.193Z,7.10
2022-12-23T07:14:58.760Z,7.08
2022-12-23T07:17:25.390Z,7.08
2022-12-23T07:19:51.953Z,7.10
2022-12-23T07:22:18.563Z,7.10
2022-12-23T07:24:45.196Z,7.10
2022-12-23T07:27:11.829Z,7.09
2022-12-23T07:29:39.812Z,7.09
2022-12-23T07:32:06.566Z,7.07
2022-12-23T07:34:33.362Z,7.08
2022-12-23T07:37:00.246Z,7.08
2022-12-23T07:39:26.833Z,7.08
2022-12-23T07:42:16.482Z,7.07
2022-12-23T07:44:41.608Z,7.06
2022-12-23T07:47:08.231Z,7.06
2022-12-23T07:49:34.804Z,7.06
2022-12-23T07:52:01.494Z,7.06
2022-12-23T07:54:28.130Z,7.08
2022-12-23T07:56:54.750Z,7.09
2022-12-23T07:59:21.301Z,7.09
2022-12-23T08:01:49.446Z,7.12
2022-12-23T08:04:16.085Z,7.11
2022-12-23T08:06:42.750Z,7.11
2022-12-23T08:09:09.672Z,7.12
2022-12-23T08:11:36.280Z,7.13
2022-12-23T08:14:02.881Z,7.15
2022-12-23T08:16:29.510Z,7.18
2022-12-23T08:18:57.477Z,7.19
2022-12-23T08:21:24.523Z,7.20
2022-12-23T08:23:51.413Z,7.19
2022-12-23T08:26:20.466Z,7.20
2022-12-23T08:28:49.192Z,7.20
2022-12-23T08:31:18.240Z,7.21
2022-12-23T08:33:47.880Z,7.22
2022-12-23T08:36:22.830Z,7.23
2022-12-23T08:38:51.900Z,7.22
2022-12-23T08:41:22.614Z,7.21
2022-12-23T08:43:49.817Z,7.19
2022-12-23T08:46:16.514Z,7.19
2022-12-23T08:48:48.955Z,7.21
2022-12-23T08:51:19.551Z,7.23
2022-12-23T08:53:47.469Z,7.24
2022-12-23T08:56:16.566Z,7.26
2022-12-23T08:58:45.322Z,7.29
2022-12-23T09:01:17.886Z,7.29
2022-12-23T09:03:45.250Z,7.33
2022-12-23T09:06:14.367Z,7.37
2022-12-23T09:08:43.209Z,7.42
2022-12-23T09:11:10.740Z,7.43
2022-12-23T09:13:37.402Z,7.44
2022-12-23T09:16:05.108Z,7.44
2022-12-23T09:18:31.810Z,7.45
2022-12-23T09:20:59.012Z,7.47
2022-12-23T09:23:25.737Z,7.48
2022-12-23T09:25:54.171Z,7.49
2022-12-23T09:28:21.179Z,7.47
2022-12-23T09:30:47.830Z,7.48
2022-12-23T09:33:14.564Z,7.51
2022-12-23T09:35:41.279Z,7.53
2022-12-23T09:38:07.957Z,7.54
2022-12-23T09:40:37.393Z,7.52
2022-12-23T09:43:18.184Z,7.54
2022-12-23T09:45:58.289Z,7.54
2022-12-23T09:48:29.170Z,7.56
2022-12-23T09:50:55.946Z,7.58
2022-12-23T09:53:27.051Z,7.60
2022-12-23T09:56:00.013Z,7.62
2022-12-23T09:58:31.773Z,7.65
2022-12-23T10:01:13.382Z,7.65
2022-12-23T10:04:06.617Z,7.66
2022-12-23T10:06:36.096Z,7.68
2022-12-23T10:09:05.017Z,7.71
2022-12-23T10:11:36.222Z,7.76
2022-12-23T10:14:14.208Z,7.77
2022-12-23T10:16:44.522Z,7.80
2022-12-23T10:19:18.016Z,7.87
2022-12-23T10:21:48.228Z,7.93
2022-12-23T10:24:20.784Z,7.99
2022-12-23T10:26:53.089Z,8.03
2022-12-23T10:29:22.712Z,8.09
2022-12-23T10:32:05.195Z,8.12
2022-12-23T10:34:41.288Z,8.18
2022-12-23T10:37:15.394Z,8.22
2022-12-23T10:39:50.704Z,8.26
2022-12-23T10:42:27.075Z,8.29
2022-12-23T10:45:14.138Z,8.30
2022-12-23T10:47:52.163Z,8.31
2022-12-23T10:50:44.112Z,8.32
2022-12-23T10:53:12.390Z,8.32
2022-12-23T10:55:39.368Z,8.28
2022-12-23T10:58:12.970Z,8.25
2022-12-23T11:00:45.241Z,8.24
2022-12-23T11:03:18.629Z,8.21
2022-12-23T11:05:45.952Z,8.17
2022-12-23T11:08:12.640Z,8.16
2022-12-23T11:10:39.813Z,8.15
2022-12-23T11:13:06.623Z,8.11
2022-12-23T11:15:35.401Z,8.11
2022-12-23T11:18:06.549Z,8.10
2022-12-23T11:20:34.198Z,8.12
2022-12-23T11:23:02.520Z,8.11
2022-12-23T11:25:35.599Z,8.10
2022-12-23T11:28:08.019Z,8.08
2022-12-23T11:30:50.284Z,8.10
2022-12-23T11:33:26.696Z,8.10
2022-12-23T11:36:06.030Z,8.11
2022-12-23T11:38:35.002Z,8.11
2022-12-23T11:41:02.995Z,8.11
2022-12-23T11:43:32.269Z,8.12
2022-12-23T11:46:24.266Z,8.13
2022-12-23T11:49:05.526Z,8.14
2022-12-23T11:51:32.423Z,8.16
2022-12-23T11:54:02.809Z,8.17
2022-12-23T11:56:35.853Z,8.19
2022-12-23T11:59:07.545Z,8.18
2022-12-23T12:01:36.068Z,8.18
2022-12-23T12:04:08.970Z,8.19
2022-12-23T12:06:42.279Z,8.21
2022-12-23T12:09:12.929Z,8.22
2022-12-23T12:11:46.309Z,8.27
2022-12-23T12:14:21.485Z,8.31
2022-12-23T12:16:56.675Z,8.36
2022-12-23T12:19:30.277Z,8.38
2022-12-23T12:22:02.218Z,8.41
2022-12-23T12:24:35.254Z,8.45
2022-12-23T12:27:05.573Z,8.50
2022-12-23T12:29:39.239Z,8.57
2022-12-23T12:32:14.438Z,8.62
2022-12-23T12:34:51.878Z,8.66
2022-12-23T12:37:26.831Z,8.70
2022-12-23T12:39:56.269Z,8.70
2022-12-23T12:42:29.300Z,8.68
2022-12-23T12:45:05.133Z,8.66
2022-12-23T12:47:53.216Z,8.69
2022-12-23T12:50:24.340Z,8.70
2022-12-23T12:52:53.868Z,8.72
2022-12-23T12:55:26.000Z,8.74
2022-12-23T12:57:52.621Z,8.75
2022-12-23T13:00:21.875Z,8.75
2022-12-23T13:03:11.373Z,8.73
2022-12-23T13:05:53.914Z,8.72
2022-12-23T13:08:39.680Z,8.67
2022-12-23T13:11:12.436Z,8.65
2022-12-23T13:13:51.176Z,8.60
2022-12-23T13:16:26.388Z,8.56
2022-12-23T13:18:59.390Z,8.56
2022-12-23T13:21:35.277Z,8.56
2022-12-23T13:24:13.051Z,8.54
2022-12-23T13:26:57.789Z,8.54
2022-12-23T13:29:44.972Z,8.54
2022-12-23T13:32:24.678Z,8.54
2022-12-23T13:35:00.284Z,8.53
2022-12-23T13:37:36.477Z,8.52
2022-12-23T13:40:17.161Z,8.50
2022-12-23T13:42:52.378Z,8.49
2022-12-23T13:45:20.145Z,8.47
2022-12-23T13:48:01.256Z,8.46
2022-12-23T13:50:36.430Z,8.45
2022-12-23T13:53:16.364Z,8.44
2022-12-23T13:55:58.869Z,8.42
2022-12-23T13:58:28.139Z,8.40
2022-12-23T14:01:18.775Z,8.41
2022-12-23T14:03:48.959Z,8.39
2022-12-23T14:06:21.736Z,8.34
2022-12-23T14:08:51.326Z,8.30
2022-12-23T14:11:21.802Z,8.28
2022-12-23T14:13:54.629Z,8.24
2022-12-23T14:16:48.652Z,8.22
2022-12-23T14:19:33.701Z,8.22
2022-12-23T14:22:12.534Z,8.21
2022-12-23T14:25:27.698Z,8.19
2022-12-23T14:28:02.431Z,8.18
2022-12-23T14:30:34.515Z,8.17
2022-12-23T14:33:03.652Z,8.16
2022-12-23T14:36:05.888Z,8.16
2022-12-23T14:38:32.914Z,8.14
2022-12-23T14:41:35.752Z,8.12
2022-12-23T14:44:02.416Z,8.11
2022-12-23T14:46:56.844Z,8.06
2022-12-23T14:49:47.337Z,8.02
2022-12-23T14:52:53.564Z,7.97
2022-12-23T14:55:51.334Z,7.91
2022-12-23T14:58:50.450Z,7.87
2022-12-23T15:01:19.981Z,7.82
2022-12-23T15:03:48.695Z,7.77
2022-12-23T15:06:19.139Z,7.72
2022-12-23T15:08:48.784Z,7.67
2022-12-23T15:11:21.694Z,7.64
2022-12-23T15:13:52.756Z,7.61
2022-12-23T15:16:19.786Z,7.58
2022-12-23T15:18:54.297Z,7.55
2022-12-23T15:21:26.568Z,7.53
2022-12-23T15:23:53.206Z,7.52
2022-12-23T15:26:21.599Z,7.49
2022-12-23T15:28:49.722Z,7.46
2022-12-23T15:31:25.661Z,7.44
2022-12-23T15:34:02.923Z,7.43
2022-12-23T15:36:33.672Z,7.43
2022-12-23T15:39:01.565Z,7.43
2022-12-23T15:41:28.876Z,7.42
2022-12-23T15:44:00.112Z,7.43
2022-12-23T15:46:30.458Z,7.43
2022-12-23T15:48:57.924Z,7.41
2022-12-23T15:51:58.200Z,7.38
2022-12-23T15:54:23.623Z,7.37
2022-12-23T15:56:53.146Z,7.37
2022-12-23T15:59:28.378Z,7.38
2022-12-23T16:01:55.506Z,7.38
2022-12-23T16:04:26.991Z,7.39
2022-12-23T16:06:55.290Z,7.39
2022-12-23T16:09:34.371Z,7.40
2022-12-23T16:12:03.612Z,7.39
2022-12-23T16:14:37.751Z,7.40
2022-12-23T16:17:21.394Z,7.40
2022-12-23T16:19:48.353Z,7.39
2022-12-23T16:22:23.922Z,7.41
2022-12-23T16:24:53.495Z,7.42
2022-12-23T16:27:27.376Z,7.42
2022-12-23T16:29:56.675Z,7.42
2022-12-23T16:32:23.317Z,7.42
2022-12-23T16:34:51.258Z,7.40
2022-12-23T16:37:17.938Z,7.38
2022-12-23T16:39:44.687Z,7.37
2022-12-23T16:42:11.344Z,7.38
2022-12-23T16:44:37.987Z,7.36
2022-12-23T16:47:15.369Z,7.36
2022-12-23T16:49:42.328Z,7.36
2022-12-23T16:52:13.148Z,7.36
2022-12-23T16:54:39.847Z,7.34
2022-12-23T16:57:06.544Z,7.33
2022-12-23T16:59:33.298Z,7.32
2022-12-23T17:02:03.747Z,7.32
2022-12-23T17:04:32.088Z,7.32
2022-12-23T17:06:58.837Z,7.32
2022-12-23T17:09:25.536Z,7.31
2022-12-23T17:11:53.538Z,7.32
2022-12-23T17:14:21.990Z,7.34
2022-12-23T17:16:49.214Z,7.34
2022-12-23T17:19:20.500Z,7.36
2022-12-23T17:21:55.779Z,7.37
2022-12-23T17:24:24.301Z,7.38
2022-12-23T17:26:51.851Z,7.39
2022-12-23T17:29:18.989Z,7.40
2022-12-23T17:31:47.284Z,7.40
2022-12-23T17:34:16.421Z,7.40
2022-12-23T17:36:49.461Z,7.41
2022-12-23T17:39:18.453Z,7.41
2022-12-23T17:41:45.131Z,7.40
2022-12-23T17:44:14.523Z,7.39
2022-12-23T17:46:41.318Z,7.38
2022-12-23T17:49:08.399Z,7.38
2022-12-23T17:51:35.091Z,7.39
2022-12-23T17:54:01.654Z,7.40
2022-12-23T17:56:30.836Z,7.41
2022-12-23T17:58:57.519Z,7.40
2022-12-23T18:01:25.864Z,7.42
2022-12-23T18:03:53.153Z,7.41
2022-12-23T18:06:22.700Z,7.39
2022-12-23T18:08:49.619Z,7.38
2022-12-23T18:11:20.373Z,7.38
2022-12-23T18:13:50.024Z,7.37
2022-12-23T18:16:16.626Z,7.36
2022-12-23T18:18:46.727Z,7.34
2022-12-23T18:21:20.204Z,7.35
2022-12-23T18:23:46.982Z,7.34
2022-12-23T18:26:14.723Z,7.35
2022-12-23T18:28:41.439Z,7.34
2022-12-23T18:31:15.194Z,7.35
2022-12-23T18:33:41.909Z,7.34
2022-12-23T18:36:18.318Z,7.36
2022-12-23T18:38:44.960Z,7.38
2022-12-23T18:41:12.305Z,7.38
2022-12-23T18:43:39.223Z,7.37
2022-12-23T18:46:06.165Z,7.37
2022-12-23T18:48:34.296Z,7.35
2022-12-23T18:51:01.041Z,7.33
2022-12-23T18:53:27.676Z,7.32
2022-12-23T18:55:55.156Z,7.32
2022-12-23T18:58:22.807Z,7.32
2022-12-23T19:00:50.722Z,7.31
2022-12-23T19:03:21.892Z,7.29
2022-12-23T19:05:50.791Z,7.27
2022-12-23T19:08:23.605Z,7.26
2022-12-23T19:10:53.521Z,7.29
2022-12-23T19:13:20.301Z,7.28
2022-12-23T19:15:46.975Z,7.26
2022-12-23T19:18:15.516Z,7.27
2022-12-23T19:20:42.465Z,7.24
2022-12-23T19:23:11.003Z,7.22
2022-12-23T19:25:40.648Z,7.19
2022-12-23T19:28:07.314Z,7.17
2022-12-23T19:30:33.952Z,7.14
2022-12-23T19:33:00.613Z,7.11
2022-12-23T19:35:27.216Z,7.08
2022-12-23T19:37:53.868Z,7.07
2022-12-23T19:40:21.909Z,7.05
2022-12-23T19:42:48.525Z,7.02
2022-12-23T19:45:15.243Z,7.01
2022-12-23T19:47:41.865Z,6.99
2022-12-23T19:50:10.565Z,6.98
2022-12-23T19:52:37.160Z,6.98
2022-12-23T19:55:04.459Z,6.98
2022-12-23T19:57:32.412Z,6.99
2022-12-23T19:59:59.136Z,7.00
2022-12-23T20:02:25.737Z,7.00
2022-12-23T20:04:52.354Z,6.97
2022-12-23T20:07:18.926Z,6.97
2022-12-23T20:09:45.558Z,6.97
2022-12-23T20:12:12.126Z,6.98
2022-12-23T20:14:40.571Z,6.98
2022-12-23T20:17:07.171Z,6.99
2022-12-23T20:19:33.816Z,6.96
2022-12-23T20:22:00.489Z,6.96
2022-12-23T20:24:27.259Z,6.96
2022-12-23T20:26:53.912Z,6.94
2022-12-23T20:29:20.447Z,6.93
2022-12-23T20:31:48.637Z,6.92
2022-12-23T20:34:16.998Z,6.90
2022-12-23T20:36:43.745Z,6.90
2022-12-23T20:39:10.465Z,6.89
2022-12-23T20:41:37.171Z,6.90
2022-12-23T20:46:52.451Z,6.87
2022-12-23T20:49:19.166Z,6.87
2022-12-23T20:51:45.838Z,6.86
2022-12-23T20:54:12.416Z,6.87
2022-12-23T20:56:39.084Z,6.88
2022-12-23T20:59:05.784Z,6.86
2022-12-23T21:01:34.583Z,6.86
2022-12-23T21:04:05.584Z,6.86
2022-12-23T21:06:33.772Z,6.83
2022-12-23T21:09:01.603Z,6.85
2022-12-23T21:11:29.099Z,6.86
2022-12-23T21:13:57.812Z,6.86
2022-12-23T21:16:28.456Z,6.88
2022-12-23T21:18:55.291Z,6.88
2022-12-23T21:21:24.823Z,6.89
2022-12-23T21:23:52.193Z,6.88
2022-12-23T21:26:20.334Z,6.88
2022-12-23T21:28:48.391Z,6.86
2022-12-23T21:31:16.455Z,6.86
2022-12-23T21:33:44.790Z,6.87
2022-12-23T21:36:19.445Z,6.87
2022-12-23T21:38:49.338Z,6.87
2022-12-23T21:41:19.413Z,6.85
2022-12-23T21:43:46.390Z,6.85
2022-12-23T21:46:14.903Z,6.85
2022-12-23T21:48:42.393Z,6.85
2022-12-23T21:51:13.526Z,6.86
2022-12-23T21:53:41.130Z,6.87
2022-12-23T21:56:11.120Z,6.85
2022-12-23T21:58:37.934Z,6.85
2022-12-23T22:01:07.234Z,6.82
2022-12-23T22:03:34.094Z,6.82
2022-12-23T22:06:09.786Z,6.81
2022-12-23T22:08:36.984Z,6.81
2022-12-23T22:11:06.330Z,6.81
2022-12-23T22:13:34.484Z,6.78
2022-12-23T22:16:01.968Z,6.78
2022-12-23T22:18:28.607Z,6.76
2022-12-23T22:20:55.473Z,6.74
2022-12-23T22:23:22.040Z,6.74
2022-12-23T22:25:52.569Z,6.76
2022-12-23T22:28:19.401Z,6.75
2022-12-23T22:30:47.418Z,6.76
2022-12-23T22:33:14.643Z,6.76
2022-12-23T22:35:41.385Z,6.77
2022-12-23T22:38:08.995Z,6.77
2022-12-23T22:40:35.712Z,6.77
2022-12-23T22:43:02.400Z,6.79
2022-12-23T22:45:29.008Z,6.77
2022-12-23T22:47:56.997Z,6.77
2022-12-23T22:50:23.544Z,6.78
2022-12-23T22:52:50.236Z,6.79
2022-12-23T22:55:16.927Z,6.76
2022-12-23T22:57:43.961Z,6.77
2022-12-23T23:00:12.828Z,6.76
2022-12-23T23:02:39.606Z,6.76
2022-12-23T23:05:12.830Z,6.76
2022-12-23T23:07:40.073Z,6.75
2022-12-23T23:10:08.107Z,6.75
2022-12-23T23:12:34.653Z,6.74
2022-12-23T23:15:01.269Z,6.73
2022-12-23T23:17:28.791Z,6.73
2022-12-23T23:19:55.596Z,6.74
2022-12-23T23:22:24.709Z,6.73
2022-12-23T23:24:52.200Z,6.71
2022-12-23T23:27:19.218Z,6.71
2022-12-23T23:29:45.990Z,6.69
2022-12-23T23:32:12.651Z,6.67
2022-12-23T23:34:39.338Z,6.66
2022-12-23T23:37:06.094Z,6.65
2022-12-23T23:39:34.097Z,6.65
2022-12-23T23:42:00.685Z,6.63
2022-12-23T23:44:27.372Z,6.61
2022-12-23T23:46:54.093Z,6.59
2022-12-23T23:49:21.579Z,6.58
2022-12-23T23:51:48.194Z,6.56
2022-12-23T23:54:14.850Z,6.55
2022-12-23T23:56:42.912Z,6.51
2022-12-23T23:59:09.546Z,6.50
